Time;durP1;ratioP1;P1;durP2;ratioP2;P2;SDS_P1;SDS_P2;PMS_P1;PMS_P2;Temp;Humidity;BMP_temperature;BMP_pressure;BME280_temperature;BME280_humidity;BME280_pressure;Samples;Min_cycle;Max_cycle;Signal;HPM_P1;HPM_P2
2021/03/30 04:57:08;;;;;;;6.63;3.10;;;3.00;99.90;;;;;;4766641;29;20271;-79
2021/03/30 04:59:39;;;;;;;5.57;3.60;;;2.90;99.90;;;;;;4750945;30;20059;-79
2021/03/30 05:02:10;;;;;;;8.57;3.88;;;2.90;99.90;;;;;;4751467;30;20142;-79
2021/03/30 05:04:41;;;;;;;8.30;3.97;;;2.90;99.90;;;;;;4751281;30;20051;-79
2021/03/30 05:07:13;;;;;;;4.05;3.20;;;2.90;99.90;;;;;;4750441;30;20516;-79
2021/03/30 05:09:44;;;;;;;9.50;4.70;;;2.90;99.90;;;;;;4765451;30;20078;-79
2021/03/30 05:12:15;;;;;;;8.23;4.40;;;2.90;99.90;;;;;;4756724;30;20723;-79
2021/03/30 05:14:46;;;;;;;8.30;4.80;;;2.90;99.90;;;;;;4768626;30;20477;-79
2021/03/30 05:17:18;;;;;;;12.30;4.70;;;3.00;99.90;;;;;;4768664;30;20063;-79
2021/03/30 05:19:49;;;;;;;9.73;4.13;;;3.00;99.90;;;;;;4753498;30;20124;-79
2021/03/30 05:22:20;;;;;;;5.72;4.15;;;3.00;99.90;;;;;;4750343;30;20052;-78
2021/03/30 05:24:52;;;;;;;6.25;3.83;;;3.00;99.90;;;;;;4749511;30;20112;-80
2021/03/30 05:27:18;;;;;;;5.88;3.72;;;3.00;99.90;;;;;;4750803;30;20051;-79
2021/03/30 05:29:49;;;;;;;7.28;3.88;;;3.00;99.90;;;;;;4766731;30;20063;-79
2021/03/30 05:32:21;;;;;;;9.38;4.38;;;3.00;99.90;;;;;;4751509;30;20044;-79
2021/03/30 05:34:53;;;;;;;6.22;3.70;;;2.90;99.90;;;;;;4755976;30;20101;-80
2021/03/30 05:37:24;;;;;;;6.93;3.70;;;2.90;99.90;;;;;;4750696;30;20143;-79
2021/03/30 05:39:51;;;;;;;7.05;3.63;;;2.90;99.90;;;;;;4756027;30;20126;-78
2021/03/30 05:42:19;;;;;;;6.25;3.75;;;2.90;99.90;;;;;;4736133;30;20088;-79
2021/03/30 05:44:54;;;;;;;7.30;3.50;;;2.90;99.90;;;;;;4750484;30;20083;-79
2021/03/30 05:47:24;;;;;;;5.68;3.45;;;2.90;99.90;;;;;;4736036;30;20075;-78
2021/03/30 05:49:56;;;;;;;6.15;3.35;;;2.90;99.90;;;;;;4750464;30;20062;-79
2021/03/30 05:52:42;;;;;;;6.70;3.58;;;2.90;99.90;;;;;;4750038;30;20055;-79
2021/03/30 05:55:25;;;;;;;5.68;3.28;;;3.00;99.90;;;;;;4778294;30;20511;-79
2021/03/30 05:57:59;;;;;;;11.93;4.05;;;3.00;99.90;;;;;;4767924;30;20051;-79
2021/03/30 06:00:33;;;;;;;7.22;3.78;;;3.00;99.90;;;;;;4767911;30;20051;-79
2021/03/30 06:03:03;;;;;;;9.82;3.80;;;3.00;99.90;;;;;;4750914;30;20142;-79
2021/03/30 06:05:35;;;;;;;8.32;4.93;;;3.10;99.90;;;;;;4736469;30;20075;-79
2021/03/30 06:08:03;;;;;;;13.55;7.13;;;3.10;99.90;;;;;;4750125;30;20121;-79
2021/03/30 06:10:36;;;;;;;9.13;5.95;;;3.20;99.90;;;;;;4736457;30;20100;-79
2021/03/30 06:13:07;;;;;;;15.20;6.53;;;3.20;99.90;;;;;;4741612;30;20100;-79
2021/03/30 06:15:38;;;;;;;10.43;6.10;;;3.30;99.90;;;;;;4760360;30;20105;-79
2021/03/30 06:18:20;;;;;;;14.48;7.47;;;3.30;99.90;;;;;;4739019;30;20117;-80
2021/03/30 06:20:51;;;;;;;17.92;8.27;;;3.40;99.90;;;;;;4752942;30;20110;-79
2021/03/30 06:23:27;;;;;;;15.88;9.02;;;3.40;99.90;;;;;;4753496;30;20085;-78
2021/03/30 06:25:58;;;;;;;12.00;6.93;;;3.50;99.90;;;;;;4739497;30;20146;-79
2021/03/30 06:28:30;;;;;;;10.30;6.50;;;3.50;99.90;;;;;;4754292;30;20071;-79
2021/03/30 06:31:09;;;;;;;8.25;6.10;;;3.60;99.90;;;;;;4753441;30;20071;-79
2021/03/30 06:33:50;;;;;;;8.95;6.15;;;3.70;99.90;;;;;;4739424;30;20126;-79
2021/03/30 06:36:28;;;;;;;13.45;8.52;;;3.80;99.90;;;;;;4739393;30;20075;-77
2021/03/30 06:39:05;;;;;;;9.05;5.70;;;3.80;99.90;;;;;;4742239;30;20197;-77
2021/03/30 06:41:57;;;;;;;8.70;6.05;;;4.00;99.90;;;;;;4750293;30;20100;-78
2021/03/30 06:44:34;;;;;;;7.25;5.03;;;4.30;99.90;;;;;;4753454;30;20047;-78
2021/03/30 06:47:13;;;;;;;7.97;5.60;;;4.50;99.90;;;;;;4752311;30;20071;-78
2021/03/30 06:50:02;;;;;;;11.52;5.90;;;4.60;99.90;;;;;;4755178;30;20071;-78
2021/03/30 06:52:36;;;;;;;9.98;7.20;;;4.70;99.90;;;;;;4774422;30;20096;-77
2021/03/30 06:55:03;;;;;;;8.27;5.53;;;4.90;99.90;;;;;;4750979;30;20462;-79
2021/03/30 06:57:43;;;;;;;8.00;4.90;;;5.00;99.90;;;;;;4735924;30;20060;-78
2021/03/30 07:00:21;;;;;;;9.65;5.22;;;5.10;99.90;;;;;;4751476;30;20580;-78
2021/03/30 07:02:55;;;;;;;7.10;4.90;;;5.10;99.90;;;;;;4752087;30;20048;-77
2021/03/30 07:05:41;;;;;;;11.82;4.88;;;5.20;99.90;;;;;;4737447;30;20078;-78
2021/03/30 07:08:16;;;;;;;5.88;4.30;;;5.40;99.90;;;;;;4767469;30;20072;-78
2021/03/30 07:10:49;;;;;;;9.85;5.20;;;5.50;99.90;;;;;;4751842;30;20579;-79
2021/03/30 07:13:22;;;;;;;9.57;4.45;;;5.60;99.90;;;;;;4767778;30;20035;-78
2021/03/30 07:15:59;;;;;;;7.85;4.70;;;5.70;99.90;;;;;;4764070;30;20140;-78
2021/03/30 07:18:35;;;;;;;8.13;4.93;;;5.80;99.90;;;;;;4736545;30;20077;-78
2021/03/30 07:21:23;;;;;;;8.32;5.88;;;5.90;99.90;;;;;;4738023;30;20052;-78
2021/03/30 07:24:07;;;;;;;10.55;5.95;;;6.00;99.90;;;;;;4739083;30;20082;-77
2021/03/30 07:26:54;;;;;;;10.57;6.68;;;6.00;99.90;;;;;;4752250;30;20086;-77
2021/03/30 07:29:30;;;;;;;8.50;6.22;;;6.10;99.90;;;;;;4738464;30;20048;-80
2021/03/30 07:32:05;;;;;;;6.93;5.10;;;6.10;99.90;;;;;;4737544;30;20051;-79
2021/03/30 07:34:45;;;;;;;11.45;5.40;;;6.20;99.90;;;;;;4752730;30;20071;-78
2021/03/30 07:37:21;;;;;;;7.97;5.45;;;6.30;99.90;;;;;;4742405;30;20113;-78
2021/03/30 07:39:57;;;;;;;7.10;5.28;;;6.40;99.90;;;;;;4769114;30;20138;-79
2021/03/30 07:42:25;;;;;;;12.10;6.75;;;6.40;99.90;;;;;;4768962;30;20059;-79
2021/03/30 07:44:52;;;;;;;10.85;6.05;;;6.50;99.90;;;;;;4753809;30;20082;-78
2021/03/30 07:47:24;;;;;;;9.88;6.55;;;6.60;99.90;;;;;;4769158;30;20146;-78
2021/03/30 07:49:55;;;;;;;9.95;6.15;;;6.70;99.90;;;;;;4754456;29;20131;-79
2021/03/30 07:52:28;;;;;;;9.77;5.55;;;6.80;99.90;;;;;;4769200;30;20051;-78
2021/03/30 07:55:18;;;;;;;6.82;5.07;;;6.90;99.90;;;;;;4761423;30;20079;-78
2021/03/30 07:58:13;;;;;;;10.10;5.15;;;7.00;99.90;;;;;;4766116;30;20105;-78
2021/03/30 08:00:46;;;;;;;9.77;5.75;;;7.20;99.90;;;;;;4744005;30;20147;-79
2021/03/30 08:03:20;;;;;;;7.53;5.57;;;7.30;99.90;;;;;;4750454;30;20120;-77
2021/03/30 08:06:07;;;;;;;8.80;5.47;;;7.40;99.90;;;;;;4751522;30;20135;-78
2021/03/30 08:09:09;;;;;;;10.77;5.72;;;7.60;99.90;;;;;;4739671;30;20075;-78
2021/03/30 08:11:41;;;;;;;16.67;6.60;;;7.80;99.90;;;;;;4742652;30;20058;-79
2021/03/30 08:14:18;;;;;;;13.05;6.95;;;7.90;99.90;;;;;;4762957;30;20138;-79
2021/03/30 08:16:52;;;;;;;8.65;5.15;;;8.00;99.90;;;;;;4768710;30;20123;-79
2021/03/30 08:19:26;;;;;;;;;;;8.20;99.90;;;;;;4750972;30;20083;-79
2021/03/30 08:22:06;;;;;;;8.90;6.05;;;8.30;99.90;;;;;;4744178;30;20390;-77
2021/03/30 08:24:43;;;;;;;10.90;6.35;;;8.50;99.90;;;;;;4771690;30;20036;-78
2021/03/30 08:27:36;;;;;;;9.73;5.28;;;8.60;99.90;;;;;;4758325;30;20059;-78
2021/03/30 08:30:15;;;;;;;12.23;5.82;;;8.90;99.90;;;;;;4752674;30;20075;-78
2021/03/30 08:32:48;;;;;;;10.13;5.47;;;9.00;99.90;;;;;;4735825;30;20072;-77
2021/03/30 08:35:28;;;;;;;6.43;5.45;;;9.20;99.90;;;;;;4750366;30;20100;-78
2021/03/30 08:38:00;;;;;;;11.38;6.63;;;9.30;99.90;;;;;;4735974;30;20063;-78
2021/03/30 08:40:34;;;;;;;9.55;5.93;;;9.50;99.90;;;;;;4750034;30;20487;-78
2021/03/30 08:43:16;;;;;;;11.35;6.00;;;9.60;99.90;;;;;;4738070;30;20152;-78
2021/03/30 08:46:04;;;;;;;9.52;6.22;;;9.70;99.90;;;;;;4752724;30;20242;-77
2021/03/30 08:48:35;;;;;;;9.52;6.10;;;9.90;99.90;;;;;;4767532;30;20512;-79
2021/03/30 08:51:13;;;;;;;8.80;5.93;;;10.10;99.90;;;;;;4752433;30;20043;-78
2021/03/30 08:53:45;;;;;;;8.65;6.10;;;10.20;99.90;;;;;;4743642;30;20058;-79
2021/03/30 08:56:27;;;;;;;10.90;6.63;;;10.40;99.90;;;;;;4750583;30;20097;-78
2021/03/30 08:59:00;;;;;;;9.43;6.97;;;10.50;99.90;;;;;;4764058;30;20108;-78
2021/03/30 09:01:31;;;;;;;16.92;8.48;;;10.70;99.90;;;;;;4736732;30;20047;-79
2021/03/30 09:04:03;;;;;;;9.57;6.50;;;10.80;99.90;;;;;;4755896;30;20070;-78
2021/03/30 09:06:35;;;;;;;10.60;6.53;;;11.00;99.90;;;;;;4758645;30;20051;-78
2021/03/30 09:09:02;;;;;;;8.40;6.30;;;11.10;99.90;;;;;;4752166;30;20117;-78
2021/03/30 09:11:36;;;;;;;11.70;6.57;;;11.20;99.90;;;;;;4758280;30;20055;-78
2021/03/30 09:14:08;;;;;;;9.50;6.00;;;11.50;99.90;;;;;;4741212;30;20039;-79
2021/03/30 09:16:40;;;;;;;10.13;6.15;;;11.60;99.90;;;;;;4758269;30;20131;-79
2021/03/30 09:19:11;;;;;;;9.77;6.70;;;11.80;99.90;;;;;;4763678;30;20105;-79
2021/03/30 09:21:49;;;;;;;8.57;6.30;;;12.00;99.90;;;;;;4753804;30;20085;-79
2021/03/30 09:26:53;;;;;;;15.57;6.68;;;12.30;99.90;;;;;;4756381;30;20051;-79
2021/03/30 09:29:25;;;;;;;9.43;6.03;;;12.50;99.90;;;;;;4750091;30;20146;-79
2021/03/30 09:31:57;;;;;;;8.57;5.90;;;12.70;99.90;;;;;;4768198;30;20102;-78
2021/03/30 09:34:28;;;;;;;15.48;6.07;;;12.90;99.90;;;;;;4753356;30;20055;-79
2021/03/30 09:36:58;;;;;;;8.45;4.85;;;13.10;99.70;;;;;;4766838;30;20051;-79
2021/03/30 09:39:29;;;;;;;7.15;4.85;;;13.30;96.40;;;;;;4753127;30;20074;-79
2021/03/30 09:41:56;;;;;;;10.20;4.78;;;13.50;95.40;;;;;;4767427;30;20151;-78
2021/03/30 09:44:24;;;;;;;11.65;4.50;;;13.70;94.30;;;;;;4752879;30;20048;-79
2021/03/30 09:46:54;;;;;;;5.60;4.40;;;13.90;91.50;;;;;;4768003;30;20104;-79
2021/03/30 09:49:26;;;;;;;6.97;4.50;;;14.00;91.30;;;;;;4753754;29;20051;-79
2021/03/30 09:52:00;;;;;;;11.27;4.90;;;14.10;90.20;;;;;;4770731;30;20075;-78
2021/03/30 09:54:41;;;;;;;7.55;5.13;;;14.30;92.00;;;;;;4756826;30;20573;-78
2021/03/30 09:57:27;;;;;;;7.63;4.60;;;14.50;91.80;;;;;;4772874;30;20144;-79
2021/03/30 09:59:59;;;;;;;7.95;4.43;;;14.70;90.60;;;;;;4769933;29;20055;-78
2021/03/30 10:02:34;;;;;;;5.82;4.20;;;14.90;88.40;;;;;;4767941;30;20104;-78
2021/03/30 10:05:05;;;;;;;7.75;4.75;;;15.10;87.70;;;;;;4769735;30;20067;-79
2021/03/30 10:07:39;;;;;;;7.28;4.65;;;15.30;86.50;;;;;;4785011;30;20067;-77
2021/03/30 10:10:13;;;;;;;8.38;4.90;;;15.40;84.90;;;;;;4751747;30;20048;-79
2021/03/30 10:13:00;;;;;;;16.20;5.22;;;15.50;82.10;;;;;;4738015;30;20134;-79
2021/03/30 10:15:32;;;;;;;11.38;5.20;;;15.70;83.10;;;;;;4738689;30;20674;-79
2021/03/30 10:18:05;;;;;;;6.55;4.47;;;15.90;81.70;;;;;;4752506;30;20048;-79
2021/03/30 10:20:48;;;;;;;6.20;4.75;;;16.00;79.80;;;;;;4738801;30;20052;-79
2021/03/30 10:23:22;;;;;;;9.55;4.68;;;16.20;76.10;;;;;;4741707;30;20052;-79
2021/03/30 10:25:54;;;;;;;8.00;4.90;;;16.40;75.40;;;;;;4742734;30;20058;-80
2021/03/30 10:28:30;;;;;;;7.70;5.60;;;16.50;74.50;;;;;;4756839;30;20197;-79
2021/03/30 10:31:18;;;;;;;10.70;5.13;;;16.60;72.30;;;;;;4743257;30;20466;-79
2021/03/30 10:33:50;;;;;;;8.77;5.85;;;16.80;69.80;;;;;;4772455;30;20054;-79
2021/03/30 10:36:22;;;;;;;11.50;5.65;;;16.90;68.10;;;;;;4742808;30;20495;-79
2021/03/30 10:39:08;;;;;;;7.72;5.53;;;17.00;67.90;;;;;;4743044;30;20056;-79
2021/03/30 10:41:42;;;;;;;7.15;4.97;;;17.20;66.50;;;;;;4756525;30;20071;-80
2021/03/30 10:44:17;;;;;;;9.48;5.80;;;17.30;62.90;;;;;;4758381;30;20055;-79
2021/03/30 10:47:44;;;;;;;7.70;4.82;;;17.40;63.60;;;;;;4761471;30;20154;-79
2021/03/30 10:56:24;;;;;;;14.52;6.18;;;17.90;56.90;;;;;;5090060;24;20079;-80
2021/03/30 10:58:56;;;;;;;7.25;5.45;;;18.00;56.70;;;;;;4760796;30;20139;-80
2021/03/30 11:01:29;;;;;;;9.88;5.53;;;18.10;54.10;;;;;;4760020;30;20055;-80
2021/03/30 11:03:58;;;;;;;9.85;5.75;;;18.20;53.20;;;;;;4760507;30;20063;-81
2021/03/30 11:06:30;;;;;;;9.95;5.38;;;18.30;50.90;;;;;;4775119;30;20044;-80
2021/03/30 11:09:03;;;;;;;7.85;5.68;;;18.40;49.70;;;;;;4760262;30;20055;-80
2021/03/30 11:11:29;;;;;;;7.35;5.75;;;18.40;50.30;;;;;;4760964;30;20058;-80
2021/03/30 11:14:01;;;;;;;10.93;5.70;;;18.50;50.10;;;;;;4756321;30;20599;-80
2021/03/30 11:16:33;;;;;;;11.25;5.32;;;18.50;48.40;;;;;;4756281;30;20524;-80
2021/03/30 11:19:06;;;;;;;7.72;4.70;;;18.60;48.00;;;;;;4771341;30;20516;-80
2021/03/30 11:21:33;;;;;;;5.18;4.18;;;18.70;46.90;;;;;;4774151;30;20055;-80
2021/03/30 11:24:01;;;;;;;6.60;4.07;;;18.80;46.50;;;;;;4758886;30;20055;-80
2021/03/30 11:26:34;;;;;;;4.43;3.80;;;18.90;47.60;;;;;;4759816;30;20573;-81
2021/03/30 11:29:08;;;;;;;7.13;4.63;;;19.00;46.60;;;;;;4760191;30;20130;-81
2021/03/30 11:34:45;;;;;;;5.65;4.03;;;19.10;44.70;;;;;;4807877;29;20104;-81
2021/03/30 11:37:46;;;;;;;7.20;4.25;;;19.20;44.90;;;;;;4782465;29;20057;-81
2021/03/30 11:40:20;;;;;;;5.50;4.15;;;19.40;44.00;;;;;;4754659;29;20051;-81
2021/03/30 11:42:54;;;;;;;14.20;4.88;;;19.50;42.90;;;;;;4777797;29;20062;-80
2021/03/30 11:45:26;;;;;;;7.63;4.60;;;19.50;41.30;;;;;;4776540;29;20054;-80
2021/03/30 11:47:58;;;;;;;7.90;4.20;;;19.50;41.20;;;;;;4791292;29;20127;-81
2021/03/30 11:50:33;;;;;;;11.18;5.53;;;19.60;42.20;;;;;;4776748;29;20046;-80
2021/03/30 11:53:09;;;;;;;8.35;4.38;;;19.70;42.90;;;;;;4773443;30;20078;-81
2021/03/30 11:55:43;;;;;;;9.23;4.75;;;19.80;40.30;;;;;;4759266;29;20050;-80
2021/03/30 11:58:15;;;;;;;7.65;4.18;;;19.80;40.90;;;;;;4776369;29;20047;-81
2021/03/30 12:00:46;;;;;;;9.55;4.68;;;20.00;41.60;;;;;;4776885;29;20051;-78
2021/03/30 12:03:17;;;;;;;5.72;4.30;;;20.10;40.60;;;;;;4790960;29;20133;-81
2021/03/30 12:05:49;;;;;;;20.00;5.18;;;20.10;39.10;;;;;;4796225;29;20073;-81
2021/03/30 12:08:20;;;;;;;6.68;4.45;;;20.20;38.40;;;;;;4777058;29;20051;-80
2021/03/30 12:10:52;;;;;;;6.72;3.92;;;20.20;38.50;;;;;;4775919;29;20051;-80
2021/03/30 12:13:23;;;;;;;9.50;5.30;;;20.30;38.70;;;;;;4775565;29;20146;-80
2021/03/30 12:15:54;;;;;;;11.07;4.70;;;20.40;39.30;;;;;;4775339;29;20511;-81
2021/03/30 12:18:25;;;;;;;8.80;4.78;;;20.40;38.90;;;;;;4776750;29;20576;-81
2021/03/30 12:20:57;;;;;;;7.57;5.65;;;20.50;38.30;;;;;;4776585;29;20078;-81
2021/03/30 12:23:28;;;;;;;9.23;5.30;;;20.50;37.70;;;;;;4790608;29;20480;-81
2021/03/30 12:25:59;;;;;;;16.05;5.45;;;20.50;38.30;;;;;;4791930;29;20130;-80
2021/03/30 12:28:30;;;;;;;6.85;5.20;;;20.50;37.40;;;;;;4773582;30;20137;-81
2021/03/30 12:31:02;;;;;;;7.88;5.22;;;20.50;38.80;;;;;;4758563;30;20050;-80
2021/03/30 12:33:28;;;;;;;7.13;4.60;;;20.60;37.90;;;;;;4788759;30;20134;-81
2021/03/30 12:35:59;;;;;;;9.35;5.60;;;20.60;38.00;;;;;;4758868;30;20170;-80
2021/03/30 12:38:30;;;;;;;7.47;4.30;;;20.70;38.60;;;;;;4758761;30;20187;-81
2021/03/30 12:43:58;;;;;;;7.97;4.40;;;20.80;36.70;;;;;;4881838;24;20062;-80
2021/03/30 12:46:26;;;;;;;9.25;6.60;;;20.90;36.60;;;;;;4773288;30;20047;-80
2021/03/30 12:48:57;;;;;;;8.52;4.97;;;20.90;36.70;;;;;;4789229;29;20043;-79
2021/03/30 12:51:29;;;;;;;11.02;4.35;;;21.00;36.40;;;;;;4756804;30;20059;-79
2021/03/30 12:54:01;;;;;;;7.82;4.85;;;21.00;35.30;;;;;;4771118;30;20055;-79
2021/03/30 12:56:33;;;;;;;5.72;3.80;;;21.10;35.00;;;;;;4772042;30;20105;-79
2021/03/30 12:59:05;;;;;;;6.88;4.07;;;21.10;35.80;;;;;;4779538;30;20047;-81
2021/03/30 13:01:31;;;;;;;5.55;3.50;;;21.10;35.20;;;;;;4772612;30;20055;-81
2021/03/30 13:04:03;;;;;;;7.68;3.50;;;21.20;34.60;;;;;;4772713;30;20051;-81
2021/03/30 13:07:22;;;;;;;5.13;3.13;;;21.30;34.90;;;;;;4772542;30;20051;-80
2021/03/30 13:09:53;;;;;;;5.90;3.67;;;21.30;34.50;;;;;;4786928;30;20063;-80
2021/03/30 13:12:25;;;;;;;6.65;3.58;;;21.40;35.30;;;;;;4786684;29;20073;-81
2021/03/30 13:14:57;;;;;;;5.88;3.40;;;21.40;35.90;;;;;;4758138;30;20533;-81
2021/03/30 13:17:24;;;;;;;8.75;4.65;;;21.50;35.90;;;;;;4787103;30;20592;-81
2021/03/30 13:19:58;;;;;;;4.20;3.60;;;21.60;35.20;;;;;;4772296;30;20043;-81
2021/03/30 13:22:26;;;;;;;6.07;3.88;;;21.60;33.70;;;;;;4772354;30;20055;-81
2021/03/30 13:25:00;;;;;;;5.03;3.78;;;21.60;33.70;;;;;;4773066;30;20047;-81
2021/03/30 13:27:31;;;;;;;4.22;3.20;;;21.60;33.50;;;;;;4775984;30;20062;-81
2021/03/30 13:29:58;;;;;;;6.55;3.30;;;21.50;34.60;;;;;;4775981;30;20043;-81
2021/03/30 13:35:50;;;;;;;4.82;3.25;;;21.60;33.50;;;;;;4808955;27;20058;-80
2021/03/30 13:38:18;;;;;;;5.78;3.15;;;21.60;33.70;;;;;;4793750;29;20088;-80
2021/03/30 13:43:39;;;;;;;7.10;4.00;;;21.80;33.50;;;;;;5067555;24;20138;-79
2021/03/30 13:46:11;;;;;;;4.55;3.72;;;21.90;33.40;;;;;;4774945;30;20055;-79
2021/03/30 13:48:42;;;;;;;4.72;3.72;;;21.90;33.20;;;;;;4760885;30;20047;-80
2021/03/30 13:54:05;;;;;;;8.15;4.45;;;22.10;33.50;;;;;;5803968;24;20149;-79
2021/03/30 13:56:32;;;;;;;7.95;3.67;;;22.10;32.90;;;;;;4775198;30;20055;-80
2021/03/30 13:59:03;;;;;;;5.78;3.40;;;22.10;32.20;;;;;;4760756;30;20466;-80
2021/03/30 14:04:38;;;;;;;5.72;3.65;;;22.20;32.00;;;;;;5694153;24;21347;-80
2021/03/30 14:07:09;;;;;;;6.15;4.13;;;22.20;33.20;;;;;;4767848;30;20144;-80
2021/03/30 14:09:41;;;;;;;8.93;4.53;;;22.30;32.70;;;;;;4757256;30;20066;-80
2021/03/30 14:15:46;;;;;;;6.82;3.65;;;22.20;31.00;;;;;;5566682;24;20086;-80
2021/03/30 14:20:53;;;;;;;4.18;3.45;;;22.20;32.40;;;;;;4774438;30;20088;-79
2021/03/30 14:23:30;;;;;;;7.07;4.38;;;22.30;32.50;;;;;;4774849;30;20469;-80
2021/03/30 14:26:10;;;;;;;4.60;3.55;;;22.40;32.70;;;;;;4760639;30;20142;-79
2021/03/30 14:28:42;;;;;;;6.93;3.15;;;22.50;32.80;;;;;;4760131;30;20400;-80
2021/03/30 14:31:15;;;;;;;8.45;3.67;;;22.60;32.60;;;;;;4760343;30;20054;-80
2021/03/30 14:33:42;;;;;;;7.70;4.22;;;22.70;32.90;;;;;;4774447;30;20108;-80
2021/03/30 14:36:14;;;;;;;6.30;4.53;;;22.90;32.60;;;;;;4773951;30;20055;-80
2021/03/30 14:38:50;;;;;;;5.75;4.65;;;23.00;31.80;;;;;;4760476;30;20047;-80
2021/03/30 14:41:45;;;;;;;6.38;4.25;;;23.00;31.70;;;;;;4760394;30;20104;-79
2021/03/30 14:44:25;;;;;;;6.22;4.47;;;23.10;31.20;;;;;;4774354;30;20154;-80
2021/03/30 14:50:31;;;;;;;6.10;4.13;;;23.20;32.10;;;;;;4760407;30;20054;-80
2021/03/30 14:52:53;;;;;;;6.00;3.83;;;23.60;31.40;;;;;;4774569;30;20055;-80
2021/03/30 14:55:35;;;;;;;6.22;3.40;;;23.80;32.50;;;;;;4774385;30;20059;-79
2021/03/30 14:58:23;;;;;;;6.88;4.22;;;24.10;31.10;;;;;;4760170;30;20141;-80
2021/03/30 15:04:20;;;;;;;10.48;3.95;;;24.60;30.00;;;;;;4750147;30;19948;-79
2021/03/30 15:06:52;;;;;;;7.82;4.00;;;24.90;29.30;;;;;;4737755;30;20052;-79
2021/03/30 15:09:18;;;;;;;6.38;4.50;;;25.10;29.50;;;;;;4738875;30;20104;-79
2021/03/30 15:11:45;;;;;;;8.48;4.30;;;25.20;29.60;;;;;;4752660;30;20063;-78
2021/03/30 15:14:46;;;;;;;9.15;5.60;;;25.40;29.60;;;;;;4764084;30;20086;-80
2021/03/30 15:17:12;;;;;;;10.75;5.63;;;25.60;29.20;;;;;;4771538;30;20143;-79
2021/03/30 15:19:39;;;;;;;7.40;5.72;;;25.70;29.40;;;;;;4771041;30;20052;-80
2021/03/30 15:22:10;;;;;;;7.47;5.82;;;25.80;28.60;;;;;;4770982;30;20055;-79
2021/03/30 15:24:42;;;;;;;6.75;4.85;;;25.90;29.40;;;;;;4771112;30;20463;-80
2021/03/30 15:27:09;;;;;;;7.22;5.53;;;26.10;29.30;;;;;;4772003;30;20044;-79
2021/03/30 15:29:49;;;;;;;7.68;5.32;;;26.10;28.70;;;;;;4757006;30;20067;-80
2021/03/30 15:35:19;;;;;;;6.43;5.70;;;26.30;28.60;;;;;;5660927;24;21097;-81
2021/03/30 15:37:51;;;;;;;7.95;5.10;;;26.40;28.60;;;;;;4759174;30;20313;-81
2021/03/30 15:40:20;;;;;;;9.52;6.78;;;26.70;28.80;;;;;;4772741;29;20108;-81
2021/03/30 15:42:52;;;;;;;7.18;4.93;;;26.80;28.10;;;;;;4772338;30;20077;-81
2021/03/30 15:48:07;;;;;;;10.18;5.03;;;27.00;27.90;;;;;;4770030;30;20419;-82
2021/03/30 15:50:39;;;;;;;8.10;4.47;;;27.00;27.90;;;;;;4756664;30;20044;-82
2021/03/30 15:53:13;;;;;;;7.43;4.57;;;27.10;27.20;;;;;;4770424;30;20142;-81
2021/03/30 15:55:44;;;;;;;7.05;4.35;;;27.20;27.10;;;;;;4752773;30;20117;-81
2021/03/30 15:58:16;;;;;;;6.47;3.70;;;27.30;27.60;;;;;;4766185;30;20071;-84
2021/03/30 16:00:47;;;;;;;6.20;3.75;;;27.30;27.60;;;;;;4752466;30;20528;-81
2021/03/30 16:03:18;;;;;;;8.38;4.35;;;27.20;27.10;;;;;;4766673;30;20142;-81
2021/03/30 16:05:49;;;;;;;13.82;8.88;;;27.30;27.00;;;;;;4753243;30;20508;-81
2021/03/30 16:08:20;;;;;;;10.75;6.63;;;27.50;27.00;;;;;;4771677;30;20039;-81
2021/03/30 16:10:52;;;;;;;6.43;3.88;;;27.60;26.60;;;;;;4772198;30;20146;-86
2021/03/30 16:13:19;;;;;;;7.60;3.97;;;27.40;26.60;;;;;;4755341;30;20142;-81
2021/03/30 16:15:50;;;;;;;7.80;3.45;;;27.10;26.70;;;;;;4756306;30;20111;-84
2021/03/30 16:18:21;;;;;;;6.93;3.75;;;26.60;27.60;;;;;;4755742;30;20119;-81
2021/03/30 16:20:53;;;;;;;7.28;3.50;;;26.30;28.10;;;;;;4756005;30;20393;-80
2021/03/30 16:23:24;;;;;;;5.88;3.33;;;25.90;28.60;;;;;;4757131;30;20082;-80
2021/03/30 16:25:50;;;;;;;9.60;3.78;;;25.70;28.70;;;;;;4772004;30;20055;-81
2021/03/30 16:28:20;;;;;;;4.22;3.42;;;25.60;29.20;;;;;;4757403;30;20150;-80
2021/03/30 16:30:51;;;;;;;4.05;3.15;;;25.60;29.70;;;;;;4758770;30;20168;-80
2021/03/30 16:33:22;;;;;;;6.60;2.67;;;25.60;30.30;;;;;;4757810;30;20051;-80
2021/03/30 16:35:54;;;;;;;4.22;3.10;;;25.60;30.40;;;;;;4757225;30;20044;-80
2021/03/30 16:38:25;;;;;;;6.90;3.03;;;25.80;30.80;;;;;;4755204;30;20150;-79
2021/03/30 16:40:56;;;;;;;5.00;2.80;;;25.80;32.30;;;;;;4755147;30;20061;-79
2021/03/30 16:43:27;;;;;;;4.68;2.80;;;25.70;33.80;;;;;;4755505;30;20539;-79
2021/03/30 16:45:54;;;;;;;5.45;2.13;;;25.40;34.50;;;;;;4755670;30;20051;-80
2021/03/30 16:48:25;;;;;;;7.88;4.18;;;24.80;36.40;;;;;;4772022;30;20560;-80
2021/03/30 16:50:51;;;;;;;6.32;3.10;;;23.80;38.70;;;;;;4756316;30;20142;-79
2021/03/30 16:53:22;;;;;;;4.25;2.38;;;22.90;40.20;;;;;;4771475;30;20142;-80
2021/03/30 16:55:54;;;;;;;3.83;2.30;;;21.90;41.60;;;;;;4753493;30;20079;-80
2021/03/30 16:58:25;;;;;;;8.63;2.10;;;21.00;43.80;;;;;;4772488;30;20090;-81
2021/03/30 17:00:56;;;;;;;10.10;1.80;;;20.30;44.80;;;;;;4757379;30;20086;-80
2021/03/30 17:03:23;;;;;;;7.20;1.80;;;19.60;46.50;;;;;;4771699;30;20584;-80
2021/03/30 17:05:54;;;;;;;7.97;2.03;;;19.10;47.60;;;;;;4771261;30;20067;-81
2021/03/30 17:08:30;;;;;;;4.25;2.05;;;18.60;49.10;;;;;;4771451;30;20492;-80
2021/03/30 17:11:04;;;;;;;4.43;1.90;;;18.20;50.10;;;;;;4968339;24;20053;-80
2021/03/30 17:13:37;;;;;;;3.58;2.20;;;17.90;51.10;;;;;;4775040;29;20096;-80
2021/03/30 17:16:04;;;;;;;5.07;1.95;;;17.60;51.60;;;;;;4789549;29;20137;-79
2021/03/30 17:18:36;;;;;;;6.68;2.10;;;17.40;52.00;;;;;;4775074;29;20057;-80
2021/03/30 17:21:10;;;;;;;5.15;1.70;;;17.10;52.50;;;;;;4805205;29;20061;-80
2021/03/30 17:23:41;;;;;;;;;;;16.90;52.80;;;;;;4788878;29;20137;-79
2021/03/30 17:26:14;;;;;;;2.50;1.58;;;16.60;53.30;;;;;;4775909;29;19925;-80
2021/03/30 17:28:46;;;;;;;;;;;16.30;53.70;;;;;;4790512;29;20051;-80
2021/03/30 17:31:18;;;;;;;3.78;1.40;;;16.20;54.10;;;;;;4789818;29;19929;-80
2021/03/30 17:33:45;;;;;;;7.13;1.58;;;16.00;54.30;;;;;;4774899;29;20504;-80
2021/03/30 17:36:17;;;;;;;4.70;1.58;;;15.90;54.40;;;;;;4774322;29;20071;-80
2021/03/30 17:38:48;;;;;;;6.47;2.92;;;15.80;54.40;;;;;;4791116;29;20165;-80
2021/03/30 17:41:21;;;;;;;9.15;3.85;;;15.70;54.40;;;;;;4811486;29;20046;-81
2021/03/30 17:43:47;;;;;;;7.35;2.20;;;15.70;53.90;;;;;;4797657;29;20058;-80
2021/03/30 17:46:19;;;;;;;4.03;1.85;;;15.80;53.70;;;;;;4812636;29;20055;-81
2021/03/30 17:48:56;;;;;;;5.30;1.90;;;15.80;54.00;;;;;;4812721;29;20066;-80
2021/03/30 17:57:25;;;;;;;6.50;1.80;;;14.90;56.10;;;;;;4786645;30;20074;-82
2021/03/30 17:59:52;;;;;;;4.22;1.60;;;14.70;56.20;;;;;;4757727;30;20056;-81
2021/03/30 18:02:19;;;;;;;5.90;1.95;;;14.60;56.70;;;;;;4770900;24;20058;-81
2021/03/30 18:04:50;;;;;;;5.13;2.10;;;14.50;56.90;;;;;;4775664;29;20058;-81
2021/03/30 18:07:25;;;;;;;4.88;1.75;;;14.40;57.20;;;;;;4776381;29;20127;-81
2021/03/30 18:09:57;;;;;;;3.22;1.50;;;14.10;57.60;;;;;;4776072;29;20047;-81
2021/03/30 18:28:03;;;;;;;16.13;13.00;;;13.60;59.70;;;;;;5893061;24;20029;31
2021/03/30 18:30:35;;;;;;;12.00;10.80;;;13.50;59.80;;;;;;4774997;30;20070;-80
2021/03/30 18:33:07;;;;;;;11.02;9.25;;;13.40;60.70;;;;;;4757656;30;20526;-80
2021/03/30 18:35:34;;;;;;;10.57;8.55;;;13.30;61.10;;;;;;4771775;30;20147;-80
2021/03/30 18:38:26;;;;;;;9.80;7.50;;;13.20;61.90;;;;;;4772096;30;20126;-80
2021/03/30 18:41:03;;;;;;;12.63;6.85;;;13.10;63.10;;;;;;4771624;30;20052;-80
2021/03/30 18:43:35;;;;;;;8.35;6.63;;;13.00;63.90;;;;;;4756979;30;20051;-79
2021/03/30 18:46:07;;;;;;;11.07;5.85;;;12.80;64.70;;;;;;4756044;30;20048;-79
2021/03/30 18:48:39;;;;;;;10.43;5.75;;;12.70;65.50;;;;;;4756531;30;20048;-79
2021/03/30 18:51:10;;;;;;;9.07;4.97;;;12.70;66.60;;;;;;4756914;30;20071;-80
2021/03/30 18:53:45;;;;;;;8.70;5.00;;;12.70;66.90;;;;;;4756339;30;20047;-79
2021/03/30 18:56:13;;;;;;;6.22;3.95;;;12.60;67.80;;;;;;4755860;30;20052;-79
2021/03/30 18:58:52;;;;;;;5.70;3.60;;;12.60;68.80;;;;;;4755817;30;20074;-80
2021/03/30 19:01:25;;;;;;;8.57;5.00;;;12.50;69.80;;;;;;4770361;30;20128;-79
2021/03/30 19:03:51;;;;;;;10.57;3.20;;;12.40;70.90;;;;;;4755496;30;20466;-80
2021/03/30 19:06:23;;;;;;;9.20;3.83;;;12.30;71.30;;;;;;4756155;30;20067;-80
2021/03/30 19:08:55;;;;;;;9.35;4.63;;;12.30;73.10;;;;;;4756248;30;20051;-80
2021/03/30 19:11:27;;;;;;;7.60;4.10;;;12.30;74.30;;;;;;4755421;30;20138;-79
2021/03/30 19:13:54;;;;;;;7.47;4.43;;;12.20;76.50;;;;;;4740492;30;20052;-80
2021/03/30 19:16:26;;;;;;;15.70;8.63;;;12.10;77.90;;;;;;4755824;30;20059;-80
2021/03/30 19:18:58;;;;;;;15.13;7.22;;;12.00;79.60;;;;;;4755594;30;20117;-79
2021/03/30 19:21:30;;;;;;;10.52;5.45;;;11.90;80.70;;;;;;4756891;30;20516;-80
2021/03/30 19:23:57;;;;;;;14.98;4.88;;;11.90;82.40;;;;;;4756958;30;20048;-79